Time,TemperatureF,DewpointF,PressureIn,WindDirection,WindDirectionDegrees,WindSpeedMPH,WindSpeedGustMPH,Humidity,HourlyPrecipIn,Conditions,Clouds,dailyrainin,SoftwareType,DateUTC
2013-06-20 00:00:00,57.3,51.5,30.15,North,1,0.0,0.0,81,0.00,,,0.00,Wunderground v.1.15,2013-06-20 04:00:00,
2013-06-20 00:05:00,56.8,51.4,30.15,North,1,0.0,0.0,82,0.00,,,0.00,Wunderground v.1.15,2013-06-20 04:05:00,
2013-06-20 00:10:00,56.5,52.4,30.15,North,3,0.0,0.0,86,0.00,,,0.00,Wunderground v.1.15,2013-06-20 04:10:00,
2013-06-20 00:15:00,56.2,52.1,30.15,North,1,0.0,0.0,86,0.00,,,0.00,Wunderground v.1.15,2013-06-20 04:15:00,
2013-06-20 00:20:00,55.7,51.3,30.15,North,1,0.0,0.0,85,0.00,,,0.00,Wunderground v.1.15,2013-06-20 04:20:00,
2013-06-20 00:25:00,55.5,51.1,30.15,North,1,0.0,0.0,85,0.00,,,0.00,Wunderground v.1.15,2013-06-20 04:25:00,
2013-06-20 00:30:00,55.5,51.4,30.15,North,3,0.0,0.0,86,0.00,,,0.00,Wunderground v.1.15,2013-06-20 04:30:00,
2013-06-20 00:40:00,55.8,51.0,30.15,North,1,0.0,0.0,84,0.00,,,0.00,Wunderground v.1.15,2013-06-20 04:40:00,
2013-06-20 00:45:00,55.7,51.3,30.15,North,3,0.0,0.0,85,0.00,,,0.00,Wunderground v.1.15,2013-06-20 04:45:00,
2013-06-20 00:50:00,55.3,50.9,30.15,North,3,0.0,0.0,85,0.00,,,0.00,Wunderground v.1.15,2013-06-20 04:50:00,
2013-06-20 00:55:00,55.2,51.1,30.16,North,1,0.0,0.0,86,0.00,,,0.00,Wunderground v.1.15,2013-06-20 04:55:00,
2013-06-20 01:00:00,55.1,51.0,30.16,North,1,0.0,0.0,86,0.00,,,0.00,Wunderground v.1.15,2013-06-20 05:00:00,
2013-06-20 01:10:00,54.5,50.7,30.16,North,3,0.0,0.0,87,0.00,,,0.00,Wunderground v.1.15,2013-06-20 05:10:00,
2013-06-20 01:15:00,54.3,50.8,30.16,North,3,0.0,0.0,88,0.00,,,0.00,Wunderground v.1.15,2013-06-20 05:15:00,
2013-06-20 01:20:00,54.1,50.6,30.16,North,360,0.0,0.0,88,0.00,,,0.00,Wunderground v.1.15,2013-06-20 05:20:00,
2013-06-20 01:25:00,54.3,51.1,30.16,North,8,0.0,0.0,89,0.00,,,0.00,Wunderground v.1.15,2013-06-20 05:25:00,
2013-06-20 01:30:00,54.3,51.1,30.16,North,8,0.0,0.0,89,0.00,,,0.00,Wunderground v.1.15,2013-06-20 05:30:00,
2013-06-20 01:35:00,54.3,51.4,30.16,North,8,0.0,0.0,90,0.00,,,0.00,Wunderground v.1.15,2013-06-20 05:35:00,
2013-06-20 01:45:00,54.9,51.4,30.17,East,91,1.0,2.0,88,0.00,,,0.00,Wunderground v.1.15,2013-06-20 05:45:00,
2013-06-20 01:50:00,55.5,51.7,30.17,East,91,1.0,1.0,87,0.00,,,0.00,Wunderground v.1.15,2013-06-20 05:50:00,
2013-06-20 01:55:00,55.6,52.4,30.17,East,91,0.0,1.0,89,0.00,,,0.00,Wunderground v.1.15,2013-06-20 05:55:00,
2013-06-20 02:00:00,56.2,52.7,30.17,ENE,78,1.0,4.0,88,0.00,,,0.00,Wunderground v.1.15,2013-06-20 06:00:00,
2013-06-20 02:10:00,58.4,53.3,30.17,ESE,110,3.0,3.0,83,0.00,,,0.00,Wunderground v.1.15,2013-06-20 06:10:00,
2013-06-20 02:15:00,58.9,53.4,30.17,ESE,118,2.0,3.0,82,0.00,,,0.00,Wunderground v.1.15,2013-06-20 06:15:00,
2013-06-20 02:20:00,58.8,53.3,30.17,ESE,113,2.0,2.0,82,0.00,,,0.00,Wunderground v.1.15,2013-06-20 06:20:00,
2013-06-20 02:25:00,58.7,53.2,30.17,SE,128,2.0,2.0,82,0.00,,,0.00,Wunderground v.1.15,2013-06-20 06:25:00,
2013-06-20 02:30:00,58.7,53.2,30.17,SSE,150,2.0,2.0,82,0.00,,,0.00,Wunderground v.1.15,2013-06-20 06:30:00,
2013-06-20 02:35:00,58.7,53.2,30.17,SE,141,2.0,2.0,82,0.00,,,0.00,Wunderground v.1.15,2013-06-20 06:35:00,
2013-06-20 02:40:00,58.6,53.5,30.17,ESE,120,1.0,1.0,83,0.00,,,0.00,Wunderground v.1.15,2013-06-20 06:40:00,
2013-06-20 02:45:00,58.5,53.4,30.17,ESE,122,1.0,1.0,83,0.00,,,0.00,Wunderground v.1.15,2013-06-20 06:45:00,
2013-06-20 02:50:00,58.6,53.5,30.17,ESE,118,1.0,2.0,83,0.00,,,0.00,Wunderground v.1.15,2013-06-20 06:50:00,
2013-06-20 02:55:00,58.6,53.5,30.17,ESE,104,1.0,2.0,83,0.00,,,0.00,Wunderground v.1.15,2013-06-20 06:55:00,
2013-06-20 03:00:00,58.6,53.5,30.17,SE,138,1.0,1.0,83,0.00,,,0.00,Wunderground v.1.15,2013-06-20 07:00:00,
2013-06-20 03:10:00,58.3,52.8,30.17,ESE,121,0.0,0.0,82,0.00,,,0.00,Wunderground v.1.15,2013-06-20 07:10:00,
2013-06-20 03:20:00,57.3,52.5,30.17,ESE,121,0.0,0.0,84,0.00,,,0.00,Wunderground v.1.15,2013-06-20 07:20:00,
2013-06-20 03:25:00,57.2,52.4,30.18,ESE,121,0.0,0.0,84,0.00,,,0.00,Wunderground v.1.15,2013-06-20 07:25:00,
2013-06-20 03:30:00,57.3,52.5,30.17,ESE,121,0.0,0.0,84,0.00,,,0.00,Wunderground v.1.15,2013-06-20 07:30:00,
2013-06-20 03:35:00,57.4,52.6,30.17,ESE,121,0.0,0.0,84,0.00,,,0.00,Wunderground v.1.15,2013-06-20 07:35:00,
2013-06-20 03:40:00,57.3,52.5,30.18,ESE,121,0.0,0.0,84,0.00,,,0.00,Wunderground v.1.15,2013-06-20 07:40:00,
2013-06-20 03:50:00,57.1,52.3,30.18,ESE,121,0.0,0.0,84,0.00,,,0.00,Wunderground v.1.15,2013-06-20 07:50:00,
2013-06-20 03:55:00,56.6,52.1,30.18,ESE,121,0.0,0.0,85,0.00,,,0.00,Wunderground v.1.15,2013-06-20 07:55:00,
2013-06-20 04:00:00,55.9,52.1,30.18,ESE,121,0.0,0.0,87,0.00,,,0.00,Wunderground v.1.15,2013-06-20 08:00:00,
2013-06-20 04:10:00,55.9,52.4,30.18,ESE,121,0.0,0.0,88,0.00,,,0.00,Wunderground v.1.15,2013-06-20 08:10:00,
2013-06-20 04:15:00,56.5,52.4,30.18,ESE,119,0.0,0.0,86,0.00,,,0.00,Wunderground v.1.15,2013-06-20 08:15:00,
2013-06-20 04:25:00,55.7,51.6,30.18,ESE,118,0.0,0.0,86,0.00,,,0.00,Wunderground v.1.15,2013-06-20 08:25:00,
2013-06-20 04:30:00,55.6,51.8,30.18,SSE,153,0.0,0.0,87,0.00,,,0.00,Wunderground v.1.15,2013-06-20 08:30:00,
2013-06-20 04:35:00,55.8,51.7,30.18,SSE,153,0.0,0.0,86,0.00,,,0.00,Wunderground v.1.15,2013-06-20 08:35:00,
2013-06-20 04:40:00,55.7,51.6,30.18,SSE,153,0.0,0.0,86,0.00,,,0.00,Wunderground v.1.15,2013-06-20 08:40:00,
2013-06-20 04:45:00,55.5,51.7,30.18,SSE,154,0.0,0.0,87,0.00,,,0.00,Wunderground v.1.15,2013-06-20 08:45:00,
2013-06-20 04:55:00,55.9,51.8,30.18,SSE,154,0.0,0.0,86,0.00,,,0.00,Wunderground v.1.15,2013-06-20 08:55:00,
2013-06-20 05:00:00,56.1,51.7,30.18,SSE,153,0.0,0.0,85,0.00,,,0.00,Wunderground v.1.15,2013-06-20 09:00:00,
2013-06-20 05:10:00,55.8,51.7,30.18,SSE,153,0.0,0.0,86,0.00,,,0.00,Wunderground v.1.15,2013-06-20 09:10:00,
2013-06-20 05:15:00,56.2,51.7,30.18,SSE,154,0.0,0.0,85,0.00,,,0.00,Wunderground v.1.15,2013-06-20 09:15:00,
2013-06-20 05:20:00,56.4,51.9,30.18,SSE,153,0.0,0.0,85,0.00,,,0.00,Wunderground v.1.15,2013-06-20 09:20:00,
2013-06-20 05:30:00,55.7,51.3,30.18,SSE,153,0.0,0.0,85,0.00,,,0.00,Wunderground v.1.15,2013-06-20 09:30:00,
2013-06-20 05:35:00,55.2,51.1,30.19,SSE,154,0.0,0.0,86,0.00,,,0.00,Wunderground v.1.15,2013-06-20 09:35:00,
2013-06-20 05:40:00,54.4,50.9,30.19,SSE,154,0.0,0.0,88,0.00,,,0.00,Wunderground v.1.15,2013-06-20 09:40:00,
2013-06-20 05:45:00,53.9,50.7,30.19,SSE,153,0.0,0.0,89,0.00,,,0.00,Wunderground v.1.15,2013-06-20 09:45:00,
2013-06-20 05:50:00,54.0,51.1,30.19,SSE,154,0.0,0.0,90,0.00,,,0.00,Wunderground v.1.15,2013-06-20 09:50:00,
2013-06-20 06:00:00,55.9,51.8,30.19,East,86,0.0,0.0,86,0.00,,,0.00,Wunderground v.1.15,2013-06-20 10:00:00,
2013-06-20 06:10:00,56.3,51.8,30.19,East,94,0.0,0.0,85,0.00,,,0.00,Wunderground v.1.15,2013-06-20 10:10:00,
2013-06-20 06:15:00,56.5,51.7,30.19,East,91,0.0,0.0,84,0.00,,,0.00,Wunderground v.1.15,2013-06-20 10:15:00,
2013-06-20 06:20:00,56.5,52.0,30.19,East,92,0.0,0.0,85,0.00,,,0.00,Wunderground v.1.15,2013-06-20 10:20:00,
2013-06-20 06:25:00,56.3,51.8,30.19,East,91,0.0,0.0,85,0.00,,,0.00,Wunderground v.1.15,2013-06-20 10:25:00,
2013-06-20 06:30:00,56.2,51.7,30.19,East,91,0.0,0.0,85,0.00,,,0.00,Wunderground v.1.15,2013-06-20 10:30:00,
2013-06-20 06:35:00,56.2,51.7,30.19,East,92,0.0,0.0,85,0.00,,,0.00,Wunderground v.1.15,2013-06-20 10:35:00,
2013-06-20 06:40:00,56.2,51.7,30.19,East,92,0.0,0.0,85,0.00,,,0.00,Wunderground v.1.15,2013-06-20 10:40:00,
2013-06-20 06:45:00,56.1,51.7,30.19,East,92,0.0,0.0,85,0.00,,,0.00,Wunderground v.1.15,2013-06-20 10:45:00,
2013-06-20 06:50:00,56.1,51.7,30.19,East,90,0.0,0.0,85,0.00,,,0.00,Wunderground v.1.15,2013-06-20 10:50:00,
2013-06-20 06:55:00,56.2,51.7,30.19,East,90,0.0,0.0,85,0.00,,,0.00,Wunderground v.1.15,2013-06-20 10:55:00,
2013-06-20 07:00:00,56.9,52.1,30.20,East,90,0.0,0.0,84,0.00,,,0.00,Wunderground v.1.15,2013-06-20 11:00:00,
2013-06-20 07:10:00,59.0,52.8,30.20,East,91,0.0,0.0,80,0.00,,,0.00,Wunderground v.1.15,2013-06-20 11:10:00,
2013-06-20 07:15:00,60.1,53.6,30.20,East,90,0.0,0.0,79,0.00,,,0.00,Wunderground v.1.15,2013-06-20 11:15:00,
2013-06-20 07:20:00,61.2,53.9,30.20,East,91,0.0,0.0,77,0.00,,,0.00,Wunderground v.1.15,2013-06-20 11:20:00,
2013-06-20 07:25:00,61.8,54.2,30.20,East,91,0.0,0.0,76,0.00,,,0.00,Wunderground v.1.15,2013-06-20 11:25:00,
2013-06-20 07:35:00,62.4,54.0,30.20,ESE,120,0.0,0.0,74,0.00,,,0.00,Wunderground v.1.15,2013-06-20 11:35:00,
2013-06-20 07:40:00,62.6,54.2,30.20,ESE,120,0.0,0.0,74,0.00,,,0.00,Wunderground v.1.15,2013-06-20 11:40:00,
2013-06-20 07:45:00,62.5,54.5,30.20,SE,139,0.0,0.0,75,0.00,,,0.00,Wunderground v.1.15,2013-06-20 11:45:00,
2013-06-20 07:50:00,62.8,54.8,30.20,SE,143,0.0,0.0,75,0.00,,,0.00,Wunderground v.1.15,2013-06-20 11:50:00,
2013-06-20 07:55:00,63.2,54.8,30.20,South,172,0.0,0.0,74,0.00,,,0.00,Wunderground v.1.15,2013-06-20 11:55:00,
2013-06-20 08:00:00,62.7,53.5,30.20,SSW,194,0.0,1.0,72,0.00,,,0.00,Wunderground v.1.15,2013-06-20 12:00:00,
2013-06-20 08:10:00,63.4,54.6,30.21,SE,139,0.0,2.0,73,0.00,,,0.00,Wunderground v.1.15,2013-06-20 12:10:00,
2013-06-20 08:15:00,63.4,55.0,30.21,SSW,197,1.0,2.0,74,0.00,,,0.00,Wunderground v.1.15,2013-06-20 12:15:00,
2013-06-20 08:20:00,63.7,54.5,30.21,SE,131,1.0,1.0,72,0.00,,,0.00,Wunderground v.1.15,2013-06-20 12:20:00,
2013-06-20 08:25:00,64.1,54.9,30.21,ESE,120,1.0,1.0,72,0.00,,,0.00,Wunderground v.1.15,2013-06-20 12:25:00,
2013-06-20 08:30:00,64.3,55.5,30.21,East,101,1.0,1.0,73,0.00,,,0.00,Wunderground v.1.15,2013-06-20 12:30:00,
2013-06-20 08:40:00,66.0,56.3,30.22,SSW,202,0.0,0.0,71,0.00,,,0.00,Wunderground v.1.15,2013-06-20 12:40:00,
2013-06-20 08:45:00,66.7,55.8,30.22,South,175,0.0,0.0,68,0.00,,,0.00,Wunderground v.1.15,2013-06-20 12:45:00,
2013-06-20 08:50:00,66.5,56.8,30.22,ESE,123,0.0,0.0,71,0.00,,,0.00,Wunderground v.1.15,2013-06-20 12:50:00,
2013-06-20 08:55:00,66.1,55.6,30.22,East,94,1.0,2.0,69,0.00,,,0.00,Wunderground v.1.15,2013-06-20 12:55:00,
2013-06-20 09:00:00,66.3,56.2,30.22,SSE,160,1.0,1.0,70,0.00,,,0.00,Wunderground v.1.15,2013-06-20 13:00:00,
2013-06-20 09:10:00,67.4,56.5,30.22,SSE,160,1.0,1.0,68,0.00,,,0.00,Wunderground v.1.15,2013-06-20 13:10:00,
2013-06-20 09:15:00,67.4,56.9,30.22,South,176,1.0,1.0,69,0.00,,,0.00,Wunderground v.1.15,2013-06-20 13:15:00,
2013-06-20 09:20:00,68.1,57.1,30.22,East,101,1.0,2.0,68,0.00,,,0.00,Wunderground v.1.15,2013-06-20 13:20:00,
2013-06-20 09:25:00,67.8,56.9,30.22,ESE,110,1.0,2.0,68,0.00,,,0.00,Wunderground v.1.15,2013-06-20 13:25:00,
2013-06-20 09:30:00,68.4,57.4,30.22,SE,134,1.0,1.0,68,0.00,,,0.00,Wunderground v.1.15,2013-06-20 13:30:00,
2013-06-20 09:35:00,68.4,57.0,30.21,East,84,1.0,1.0,67,0.00,,,0.00,Wunderground v.1.15,2013-06-20 13:35:00,
2013-06-20 09:40:00,68.2,56.8,30.21,ESE,115,1.0,2.0,67,0.00,,,0.00,Wunderground v.1.15,2013-06-20 13:40:00,
2013-06-20 09:45:00,68.6,58.0,30.21,East,94,1.0,2.0,69,0.00,,,0.00,Wunderground v.1.15,2013-06-20 13:45:00,
2013-06-20 09:50:00,69.3,57.9,30.21,South,186,1.0,2.0,67,0.00,,,0.00,Wunderground v.1.15,2013-06-20 13:50:00,
2013-06-20 09:55:00,70.1,57.8,30.21,SSW,193,1.0,2.0,65,0.00,,,0.00,Wunderground v.1.15,2013-06-20 13:55:00,
2013-06-20 10:00:00,71.0,59.1,30.21,South,191,1.0,1.0,66,0.00,,,0.00,Wunderground v.1.15,2013-06-20 14:00:00,
2013-06-20 10:10:00,71.5,59.5,30.21,SW,217,2.0,2.0,66,0.00,,,0.00,Wunderground v.1.15,2013-06-20 14:10:00,
2013-06-20 10:15:00,72.2,59.3,30.22,SSE,164,1.0,2.0,64,0.00,,,0.00,Wunderground v.1.15,2013-06-20 14:15:00,
2013-06-20 10:20:00,72.5,58.3,30.22,South,188,1.0,1.0,61,0.00,,,0.00,Wunderground v.1.15,2013-06-20 14:20:00,
2013-06-20 10:25:00,73.1,60.2,30.22,SW,226,1.0,1.0,64,0.00,,,0.00,Wunderground v.1.15,2013-06-20 14:25:00,
2013-06-20 10:30:00,73.7,58.5,30.22,SW,218,1.0,1.0,59,0.00,,,0.00,Wunderground v.1.15,2013-06-20 14:30:00,
2013-06-20 10:35:00,74.0,59.2,30.21,WSW,253,1.0,2.0,60,0.00,,,0.00,Wunderground v.1.15,2013-06-20 14:35:00,
2013-06-20 10:40:00,74.2,58.5,30.22,South,191,1.0,1.0,58,0.00,,,0.00,Wunderground v.1.15,2013-06-20 14:40:00,
2013-06-20 10:50:00,74.1,57.9,30.21,SW,226,2.0,2.0,57,0.00,,,0.00,Wunderground v.1.15,2013-06-20 14:50:00,
2013-06-20 10:55:00,74.4,58.2,30.21,WSW,243,2.0,2.0,57,0.00,,,0.00,Wunderground v.1.15,2013-06-20 14:55:00,
2013-06-20 11:00:00,74.5,58.3,30.21,SSW,209,1.0,2.0,57,0.00,,,0.00,Wunderground v.1.15,2013-06-20 15:00:00,
2013-06-20 11:10:00,75.2,59.9,30.21,SE,134,1.0,1.0,59,0.00,,,0.00,Wunderground v.1.15,2013-06-20 15:10:00,
2013-06-20 11:20:00,76.1,59.3,30.21,SSW,204,1.0,2.0,56,0.00,,,0.00,Wunderground v.1.15,2013-06-20 15:20:00,
2013-06-20 11:25:00,76.4,60.5,30.21,South,174,1.0,2.0,58,0.00,,,0.00,Wunderground v.1.15,2013-06-20 15:25:00,
2013-06-20 11:30:00,76.5,58.6,30.21,SW,232,1.0,2.0,54,0.00,,,0.00,Wunderground v.1.15,2013-06-20 15:30:00,
2013-06-20 11:35:00,76.0,59.7,30.21,SW,236,1.0,2.0,57,0.00,,,0.00,Wunderground v.1.15,2013-06-20 15:35:00,
2013-06-20 11:40:00,75.8,59.0,30.22,SSW,207,2.0,2.0,56,0.00,,,0.00,Wunderground v.1.15,2013-06-20 15:40:00,
2013-06-20 11:45:00,76.2,59.4,30.22,SSW,200,1.0,2.0,56,0.00,,,0.00,Wunderground v.1.15,2013-06-20 15:45:00,
2013-06-20 11:55:00,76.8,58.9,30.22,SW,235,2.0,4.0,54,0.00,,,0.00,Wunderground v.1.15,2013-06-20 15:55:00,
2013-06-20 12:00:00,76.8,56.8,30.21,South,185,2.0,2.0,50,0.00,,,0.00,Wunderground v.1.15,2013-06-20 16:00:00,
2013-06-20 12:10:00,77.6,56.9,30.21,South,175,2.0,2.0,49,0.00,,,0.00,Wunderground v.1.15,2013-06-20 16:10:00,
2013-06-20 12:15:00,77.6,56.9,30.21,East,96,2.0,2.0,49,0.00,,,0.00,Wunderground v.1.15,2013-06-20 16:15:00,
2013-06-20 12:25:00,77.6,52.7,30.21,WNW,288,1.0,3.0,42,0.00,,,0.00,Wunderground v.1.15,2013-06-20 16:25:00,
2013-06-20 12:30:00,77.7,54.0,30.21,WSW,256,2.0,3.0,44,0.00,,,0.00,Wunderground v.1.15,2013-06-20 16:30:00,
2013-06-20 12:35:00,78.1,54.4,30.21,ESE,113,2.0,3.0,44,0.00,,,0.00,Wunderground v.1.15,2013-06-20 16:35:00,
2013-06-20 12:40:00,78.2,55.7,30.20,ESE,113,2.0,2.0,46,0.00,,,0.00,Wunderground v.1.15,2013-06-20 16:40:00,
2013-06-20 12:45:00,78.3,56.4,30.20,SE,142,2.0,2.0,47,0.00,,,0.00,Wunderground v.1.15,2013-06-20 16:45:00,
2013-06-20 12:50:00,78.8,58.6,30.20,WSW,245,2.0,3.0,50,0.00,,,0.00,Wunderground v.1.15,2013-06-20 16:50:00,
2013-06-20 13:00:00,78.2,54.5,30.21,ENE,76,3.0,3.0,44,0.00,,,0.00,Wunderground v.1.15,2013-06-20 17:00:00,
2013-06-20 13:10:00,79.1,55.3,30.21,SW,222,2.0,2.0,44,0.00,,,0.00,Wunderground v.1.15,2013-06-20 17:10:00,
2013-06-20 13:15:00,79.5,56.9,30.21,South,176,2.0,2.0,46,0.00,,,0.00,Wunderground v.1.15,2013-06-20 17:15:00,
2013-06-20 13:20:00,79.8,55.3,30.21,ESE,122,2.0,3.0,43,0.00,,,0.00,Wunderground v.1.15,2013-06-20 17:20:00,
2013-06-20 13:25:00,79.7,55.2,30.21,SSW,200,2.0,3.0,43,0.00,,,0.00,Wunderground v.1.15,2013-06-20 17:25:00,
2013-06-20 13:30:00,79.6,56.4,30.21,SE,142,2.0,4.0,45,0.00,,,0.00,Wunderground v.1.15,2013-06-20 17:30:00,
2013-06-20 13:35:00,79.6,57.6,30.21,ESE,113,3.0,5.0,47,0.00,,,0.00,Wunderground v.1.15,2013-06-20 17:35:00,
2013-06-20 13:40:00,79.6,55.1,30.21,ESE,113,3.0,6.0,43,0.00,,,0.00,Wunderground v.1.15,2013-06-20 17:40:00,
2013-06-20 13:45:00,79.2,54.1,30.20,East,82,4.0,6.0,42,0.00,,,0.00,Wunderground v.1.15,2013-06-20 17:45:00,
2013-06-20 13:55:00,80.2,56.3,30.20,South,174,2.0,3.0,44,0.00,,,0.00,Wunderground v.1.15,2013-06-20 17:55:00,
2013-06-20 14:00:00,80.5,54.0,30.20,ESE,105,3.0,4.0,40,0.00,,,0.00,Wunderground v.1.15,2013-06-20 18:00:00,
2013-06-20 14:10:00,79.8,54.7,30.20,SE,129,4.0,4.0,42,0.00,,,0.00,Wunderground v.1.15,2013-06-20 18:10:00,
2013-06-20 14:15:00,80.2,55.0,30.20,SE,142,3.0,4.0,42,0.00,,,0.00,Wunderground v.1.15,2013-06-20 18:15:00,
2013-06-20 14:20:00,79.7,55.2,30.20,NE,49,3.0,3.0,43,0.00,,,0.00,Wunderground v.1.15,2013-06-20 18:20:00,
2013-06-20 14:25:00,79.4,55.0,30.20,South,173,2.0,3.0,43,0.00,,,0.00,Wunderground v.1.15,2013-06-20 18:25:00,
2013-06-20 14:35:00,81.4,54.8,30.20,NW,308,1.0,2.0,40,0.00,,,0.00,Wunderground v.1.15,2013-06-20 18:35:00,
2013-06-20 14:40:00,82.0,56.0,30.20,SE,131,1.0,2.0,41,0.00,,,0.00,Wunderground v.1.15,2013-06-20 18:40:00,
2013-06-20 14:45:00,81.9,56.6,30.20,West,278,2.0,2.0,42,0.00,,,0.00,Wunderground v.1.15,2013-06-20 18:45:00,
2013-06-20 14:50:00,82.3,56.2,30.20,NNE,32,1.0,4.0,41,0.00,,,0.00,Wunderground v.1.15,2013-06-20 18:50:00,
2013-06-20 14:55:00,81.5,54.2,30.20,NW,316,2.0,4.0,39,0.00,,,0.00,Wunderground v.1.15,2013-06-20 18:55:00,
2013-06-20 15:00:00,81.0,53.7,30.19,WNW,284,3.0,3.0,39,0.00,,,0.00,Wunderground v.1.15,2013-06-20 19:00:00,
2013-06-20 15:10:00,80.7,56.8,30.19,North,354,2.0,4.0,44,0.00,,,0.00,Wunderground v.1.15,2013-06-20 19:10:00,
2013-06-20 15:15:00,80.7,54.1,30.19,WSW,248,2.0,4.0,40,0.00,,,0.00,Wunderground v.1.15,2013-06-20 19:15:00,
2013-06-20 15:20:00,80.8,57.5,30.19,NE,36,2.0,2.0,45,0.00,,,0.00,Wunderground v.1.15,2013-06-20 19:20:00,
2013-06-20 15:25:00,81.4,56.8,30.19,NW,321,2.0,4.0,43,0.00,,,0.00,Wunderground v.1.15,2013-06-20 19:25:00,
2013-06-20 15:30:00,81.3,54.7,30.19,NE,39,2.0,3.0,40,0.00,,,0.00,Wunderground v.1.15,2013-06-20 19:30:00,
2013-06-20 15:35:00,81.3,55.3,30.19,NNE,25,2.0,3.0,41,0.00,,,0.00,Wunderground v.1.15,2013-06-20 19:35:00,
2013-06-20 15:40:00,81.2,53.9,30.19,North,353,3.0,4.0,39,0.00,,,0.00,Wunderground v.1.15,2013-06-20 19:40:00,
2013-06-20 15:45:00,81.1,55.2,30.19,NW,322,3.0,4.0,41,0.00,,,0.00,Wunderground v.1.15,2013-06-20 19:45:00,
2013-06-20 15:50:00,81.6,54.2,30.19,SE,131,2.0,3.0,39,0.00,,,0.00,Wunderground v.1.15,2013-06-20 19:50:00,
2013-06-20 15:55:00,82.3,53.4,30.19,ESE,115,2.0,3.0,37,0.00,,,0.00,Wunderground v.1.15,2013-06-20 19:55:00,
2013-06-20 16:00:00,82.2,54.1,30.18,WSW,246,2.0,3.0,38,0.00,,,0.00,Wunderground v.1.15,2013-06-20 20:00:00,
2013-06-20 16:10:00,82.7,55.2,30.18,SW,214,2.0,2.0,39,0.00,,,0.00,Wunderground v.1.15,2013-06-20 20:10:00,
2013-06-20 16:15:00,83.0,56.2,30.18,SW,220,2.0,3.0,40,0.00,,,0.00,Wunderground v.1.15,2013-06-20 20:15:00,
2013-06-20 16:20:00,82.9,54.7,30.17,SSW,201,2.0,2.0,38,0.00,,,0.00,Wunderground v.1.15,2013-06-20 20:20:00,
2013-06-20 16:25:00,82.8,53.9,30.17,WNW,290,1.0,2.0,37,0.00,,,0.00,Wunderground v.1.15,2013-06-20 20:25:00,
2013-06-20 16:30:00,82.7,55.2,30.17,ENE,60,1.0,11.0,39,0.00,,,0.00,Wunderground v.1.15,2013-06-20 20:30:00,
2013-06-20 16:35:00,82.1,54.7,30.17,SSE,167,2.0,11.0,39,0.00,,,0.00,Wunderground v.1.15,2013-06-20 20:35:00,
2013-06-20 16:45:00,82.3,55.6,30.17,WSW,253,2.0,3.0,40,0.00,,,0.00,Wunderground v.1.15,2013-06-20 20:45:00,
2013-06-20 16:50:00,82.4,55.0,30.16,SSE,160,1.0,1.0,39,0.00,,,0.00,Wunderground v.1.15,2013-06-20 20:50:00,
2013-06-20 16:55:00,82.9,56.8,30.16,SSW,203,1.0,3.0,41,0.00,,,0.00,Wunderground v.1.15,2013-06-20 20:55:00,
2013-06-20 17:00:00,83.2,57.7,30.16,SW,233,2.0,2.0,42,0.00,,,0.00,Wunderground v.1.15,2013-06-20 21:00:00,
2013-06-20 17:10:00,83.7,56.8,30.17,West,276,1.0,1.0,40,0.00,,,0.00,Wunderground v.1.15,2013-06-20 21:10:00,
2013-06-20 17:15:00,83.8,57.6,30.16,SW,232,2.0,3.0,41,0.00,,,0.00,Wunderground v.1.15,2013-06-20 21:15:00,
2013-06-20 17:20:00,83.6,56.0,30.16,West,262,2.0,4.0,39,0.00,,,0.00,Wunderground v.1.15,2013-06-20 21:20:00,
2013-06-20 17:25:00,83.6,56.0,30.16,ESE,104,2.0,4.0,39,0.00,,,0.00,Wunderground v.1.15,2013-06-20 21:25:00,
2013-06-20 17:30:00,84.1,55.0,30.16,SW,219,2.0,2.0,37,0.00,,,0.00,Wunderground v.1.15,2013-06-20 21:30:00,
2013-06-20 17:35:00,84.6,57.6,30.16,SSW,201,1.0,2.0,40,0.00,,,0.00,Wunderground v.1.15,2013-06-20 21:35:00,
2013-06-20 17:40:00,84.5,54.6,30.16,WNW,283,2.0,2.0,36,0.00,,,0.00,Wunderground v.1.15,2013-06-20 21:40:00,
2013-06-20 17:50:00,84.0,54.9,30.15,SSW,207,2.0,2.0,37,0.00,,,0.00,Wunderground v.1.15,2013-06-20 21:50:00,
2013-06-20 17:55:00,83.6,57.4,30.15,SSE,160,2.0,2.0,41,0.00,,,0.00,Wunderground v.1.15,2013-06-20 21:55:00,
2013-06-20 18:00:00,82.8,57.4,30.15,SSW,200,3.0,3.0,42,0.00,,,0.00,Wunderground v.1.15,2013-06-20 22:00:00,
2013-06-20 18:10:00,83.1,57.0,30.15,ESE,110,2.0,2.0,41,0.00,,,0.00,Wunderground v.1.15,2013-06-20 22:10:00,
2013-06-20 18:15:00,83.2,57.7,30.15,SSE,158,2.0,2.0,42,0.00,,,0.00,Wunderground v.1.15,2013-06-20 22:15:00,
2013-06-20 18:20:00,82.4,57.0,30.15,SE,134,3.0,3.0,42,0.00,,,0.00,Wunderground v.1.15,2013-06-20 22:20:00,
2013-06-20 18:25:00,82.8,55.3,30.15,SSW,212,3.0,3.0,39,0.00,,,0.00,Wunderground v.1.15,2013-06-20 22:25:00,
2013-06-20 18:30:00,83.1,55.6,30.15,ENE,73,1.0,1.0,39,0.00,,,0.00,Wunderground v.1.15,2013-06-20 22:30:00,
2013-06-20 18:35:00,83.1,54.9,30.15,WNW,297,1.0,1.0,38,0.00,,,0.00,Wunderground v.1.15,2013-06-20 22:35:00,
2013-06-20 18:40:00,83.1,55.6,30.14,SW,234,2.0,4.0,39,0.00,,,0.00,Wunderground v.1.15,2013-06-20 22:40:00,
2013-06-20 18:50:00,83.7,56.8,30.15,NE,35,1.0,2.0,40,0.00,,,0.00,Wunderground v.1.15,2013-06-20 22:50:00,
2013-06-20 18:55:00,83.5,58.6,30.15,SW,232,2.0,2.0,43,0.00,,,0.00,Wunderground v.1.15,2013-06-20 22:55:00,
2013-06-20 19:00:00,83.4,58.6,30.15,WSW,250,2.0,2.0,43,0.00,,,0.00,Wunderground v.1.15,2013-06-20 23:00:00,
2013-06-20 19:10:00,83.2,60.9,30.15,SSE,150,1.0,1.0,47,0.00,,,0.00,Wunderground v.1.15,2013-06-20 23:10:00,
2013-06-20 19:15:00,83.4,59.8,30.15,SSE,165,1.0,1.0,45,0.00,,,0.00,Wunderground v.1.15,2013-06-20 23:15:00,
2013-06-20 19:25:00,83.1,58.3,30.15,South,177,2.0,2.0,43,0.00,,,0.00,Wunderground v.1.15,2013-06-20 23:25:00,
2013-06-20 19:30:00,83.3,58.5,30.15,SSW,212,2.0,2.0,43,0.00,,,0.00,Wunderground v.1.15,2013-06-20 23:30:00,
2013-06-20 19:35:00,83.4,58.6,30.15,SSW,212,1.0,3.0,43,0.00,,,0.00,Wunderground v.1.15,2013-06-20 23:35:00,
2013-06-20 19:40:00,82.7,59.2,30.15,South,181,2.0,2.0,45,0.00,,,0.00,Wunderground v.1.15,2013-06-20 23:40:00,
2013-06-20 19:45:00,82.4,59.5,30.15,SW,236,2.0,2.0,46,0.00,,,0.00,Wunderground v.1.15,2013-06-20 23:45:00,
2013-06-20 19:55:00,82.1,59.9,30.15,SE,128,1.0,2.0,47,0.00,,,0.00,Wunderground v.1.15,2013-06-20 23:55:00,
2013-06-20 20:00:00,81.5,59.9,30.15,South,184,2.0,2.0,48,0.00,,,0.00,Wunderground v.1.15,2013-06-21 00:00:00,
2013-06-20 20:10:00,81.6,59.4,30.15,SSW,205,1.0,2.0,47,0.00,,,0.00,Wunderground v.1.15,2013-06-21 00:10:00,
2013-06-20 20:15:00,81.5,60.5,30.15,South,181,1.0,2.0,49,0.00,,,0.00,Wunderground v.1.15,2013-06-21 00:15:00,
2013-06-20 20:20:00,81.3,60.3,30.15,SSE,163,1.0,1.0,49,0.00,,,0.00,Wunderground v.1.15,2013-06-21 00:20:00,
2013-06-20 20:30:00,80.6,61.3,30.15,SSE,148,1.0,2.0,52,0.00,,,0.00,Wunderground v.1.15,2013-06-21 00:30:00,
2013-06-20 20:35:00,79.9,61.2,30.15,SE,138,1.0,2.0,53,0.00,,,0.00,Wunderground v.1.15,2013-06-21 00:35:00,
2013-06-20 20:40:00,79.3,61.7,30.14,SSE,163,2.0,2.0,55,0.00,,,0.00,Wunderground v.1.15,2013-06-21 00:40:00,
2013-06-20 20:45:00,78.5,61.5,30.15,SE,125,2.0,3.0,56,0.00,,,0.00,Wunderground v.1.15,2013-06-21 00:45:00,
2013-06-20 20:50:00,77.9,61.9,30.15,SE,129,2.0,2.0,58,0.00,,,0.00,Wunderground v.1.15,2013-06-21 00:50:00,
2013-06-20 21:00:00,77.0,62.0,30.15,SE,131,2.0,2.0,60,0.00,,,0.00,Wunderground v.1.15,2013-06-21 01:00:00,
2013-06-20 21:10:00,76.4,62.4,30.15,East,97,1.0,1.0,62,0.00,,,0.00,Wunderground v.1.15,2013-06-21 01:10:00,
2013-06-20 21:15:00,76.2,62.7,30.15,East,92,1.0,1.0,63,0.00,,,0.00,Wunderground v.1.15,2013-06-21 01:15:00,
2013-06-20 21:20:00,75.8,62.3,30.15,East,94,1.0,2.0,63,0.00,,,0.00,Wunderground v.1.15,2013-06-21 01:20:00,
2013-06-20 21:25:00,75.6,63.0,30.15,ESE,108,1.0,2.0,65,0.00,,,0.00,Wunderground v.1.15,2013-06-21 01:25:00,
2013-06-20 21:35:00,74.9,62.8,30.15,ESE,115,1.0,1.0,66,0.00,,,0.00,Wunderground v.1.15,2013-06-21 01:35:00,
2013-06-20 21:40:00,74.6,62.9,30.15,East,101,0.0,1.0,67,0.00,,,0.00,Wunderground v.1.15,2013-06-21 01:40:00,
2013-06-20 21:45:00,74.5,62.8,30.15,ESE,102,0.0,1.0,67,0.00,,,0.00,Wunderground v.1.15,2013-06-21 01:45:00,
2013-06-20 21:50:00,74.1,62.9,30.15,ENE,74,1.0,1.0,68,0.00,,,0.00,Wunderground v.1.15,2013-06-21 01:50:00,
2013-06-20 21:55:00,73.4,63.4,30.15,ENE,74,1.0,1.0,71,0.00,,,0.00,Wunderground v.1.15,2013-06-21 01:55:00,
2013-06-20 22:00:00,72.2,62.7,30.15,ENE,73,0.0,0.0,72,0.00,,,0.00,Wunderground v.1.15,2013-06-21 02:00:00,
2013-06-20 22:10:00,71.7,63.4,30.16,ENE,74,0.0,0.0,75,0.00,,,0.00,Wunderground v.1.15,2013-06-21 02:10:00,
2013-06-20 22:15:00,71.2,63.6,30.16,ENE,74,0.0,0.0,77,0.00,,,0.00,Wunderground v.1.15,2013-06-21 02:15:00,
2013-06-20 22:20:00,70.3,62.4,30.16,ENE,74,0.0,0.0,76,0.00,,,0.00,Wunderground v.1.15,2013-06-21 02:20:00,
2013-06-20 22:25:00,70.1,63.3,30.16,ENE,74,0.0,0.0,79,0.00,,,0.00,Wunderground v.1.15,2013-06-21 02:25:00,
2013-06-20 22:35:00,69.9,62.7,30.16,ENE,74,0.0,0.0,78,0.00,,,0.00,Wunderground v.1.15,2013-06-21 02:35:00,
2013-06-20 22:40:00,70.5,62.9,30.17,ENE,74,0.0,0.0,77,0.00,,,0.00,Wunderground v.1.15,2013-06-21 02:40:00,
2013-06-20 22:45:00,70.5,62.9,30.17,ENE,74,0.0,0.0,77,0.00,,,0.00,Wunderground v.1.15,2013-06-21 02:45:00,
2013-06-20 22:50:00,69.7,62.9,30.17,ENE,74,0.0,0.0,79,0.00,,,0.00,Wunderground v.1.15,2013-06-21 02:50:00,
2013-06-20 22:55:00,69.1,63.0,30.17,ENE,74,0.0,0.0,81,0.00,,,0.00,Wunderground v.1.15,2013-06-21 02:55:00,
2013-06-20 23:00:00,68.6,63.2,30.17,ENE,74,0.0,0.0,83,0.00,,,0.00,Wunderground v.1.15,2013-06-21 03:00:00,
2013-06-20 23:10:00,68.2,63.2,30.17,ENE,74,0.0,0.0,84,0.00,,,0.00,Wunderground v.1.15,2013-06-21 03:10:00,
2013-06-20 23:15:00,68.2,62.8,30.17,ENE,74,0.0,0.0,83,0.00,,,0.00,Wunderground v.1.15,2013-06-21 03:15:00,
2013-06-20 23:20:00,69.2,63.1,30.17,ENE,74,0.0,0.0,81,0.00,,,0.00,Wunderground v.1.15,2013-06-21 03:20:00,
2013-06-20 23:25:00,69.7,63.6,30.17,ENE,74,0.0,0.0,81,0.00,,,0.00,Wunderground v.1.15,2013-06-21 03:25:00,
2013-06-20 23:30:00,69.0,62.6,30.17,ENE,74,0.0,0.0,80,0.00,,,0.00,Wunderground v.1.15,2013-06-21 03:30:00,
2013-06-20 23:40:00,68.1,63.1,30.18,ENE,74,0.0,0.0,84,0.00,,,0.00,Wunderground v.1.15,2013-06-21 03:40:00,
2013-06-20 23:45:00,68.1,63.1,30.18,ENE,65,0.0,0.0,84,0.00,,,0.00,Wunderground v.1.15,2013-06-21 03:45:00,
2013-06-20 23:50:00,67.8,62.8,30.18,ENE,65,0.0,0.0,84,0.00,,,0.00,Wunderground v.1.15,2013-06-21 03:50:00,
2013-06-20 23:55:00,67.5,62.8,30.18,ENE,65,0.0,0.0,85,0.00,,,0.00,Wunderground v.1.15,2013-06-21 03:55:00,